sensor_id;sensor_type;location;lat;lon;timestamp;temperature;humidity
77727;SHT30;68312;53.502;10.030;2023-03-14T00:00:58;10.41;84.48
77727;SHT30;68312;53.502;10.030;2023-03-14T00:03:23;10.29;84.92
77727;SHT30;68312;53.502;10.030;2023-03-14T00:05:49;10.38;84.51
77727;SHT30;68312;53.502;10.030;2023-03-14T00:08:15;10.27;84.57
77727;SHT30;68312;53.502;10.030;2023-03-14T00:10:40;10.25;84.72
77727;SHT30;68312;53.502;10.030;2023-03-14T00:13:06;10.18;84.85
77727;SHT30;68312;53.502;10.030;2023-03-14T00:15:33;10.23;84.56
77727;SHT30;68312;53.502;10.030;2023-03-14T00:18:00;10.30;84.57
77727;SHT30;68312;53.502;10.030;2023-03-14T00:20:26;10.40;84.06
77727;SHT30;68312;53.502;10.030;2023-03-14T00:22:51;10.37;84.27
77727;SHT30;68312;53.502;10.030;2023-03-14T00:25:17;10.50;83.56
77727;SHT30;68312;53.502;10.030;2023-03-14T00:27:43;10.52;83.46
77727;SHT30;68312;53.502;10.030;2023-03-14T00:30:09;10.50;83.45
77727;SHT30;68312;53.502;10.030;2023-03-14T00:32:36;10.42;83.76
77727;SHT30;68312;53.502;10.030;2023-03-14T00:35:05;10.36;83.80
77727;SHT30;68312;53.502;10.030;2023-03-14T00:37:31;10.38;83.82
77727;SHT30;68312;53.502;10.030;2023-03-14T00:39:56;10.37;83.92
77727;SHT30;68312;53.502;10.030;2023-03-14T00:42:23;10.38;83.99
77727;SHT30;68312;53.502;10.030;2023-03-14T00:44:49;10.36;84.10
77727;SHT30;68312;53.502;10.030;2023-03-14T00:47:14;10.40;83.68
77727;SHT30;68312;53.502;10.030;2023-03-14T00:49:40;10.29;84.18
77727;SHT30;68312;53.502;10.030;2023-03-14T00:52:08;10.17;84.55
77727;SHT30;68312;53.502;10.030;2023-03-14T00:54:34;10.11;84.82
77727;SHT30;68312;53.502;10.030;2023-03-14T00:57:00;10.04;85.21
77727;SHT30;68312;53.502;10.030;2023-03-14T00:59:25;9.96;85.45
77727;SHT30;68312;53.502;10.030;2023-03-14T01:01:51;9.96;85.34
77727;SHT30;68312;53.502;10.030;2023-03-14T01:04:16;10.03;85.29
77727;SHT30;68312;53.502;10.030;2023-03-14T01:06:42;10.00;85.35
77727;SHT30;68312;53.502;10.030;2023-03-14T01:09:08;10.06;85.21
77727;SHT30;68312;53.502;10.030;2023-03-14T01:11:35;10.11;84.98
77727;SHT30;68312;53.502;10.030;2023-03-14T01:14:02;10.21;84.59
77727;SHT30;68312;53.502;10.030;2023-03-14T01:16:33;10.24;84.46
77727;SHT30;68312;53.502;10.030;2023-03-14T01:19:03;10.25;84.70
77727;SHT30;68312;53.502;10.030;2023-03-14T01:21:32;10.25;84.50
77727;SHT30;68312;53.502;10.030;2023-03-14T01:24:00;10.31;84.42
77727;SHT30;68312;53.502;10.030;2023-03-14T01:26:31;10.41;84.00
77727;SHT30;68312;53.502;10.030;2023-03-14T01:28:59;10.44;83.81
77727;SHT30;68312;53.502;10.030;2023-03-14T01:31:26;10.47;83.88
77727;SHT30;68312;53.502;10.030;2023-03-14T01:33:52;10.45;84.04
77727;SHT30;68312;53.502;10.030;2023-03-14T01:36:18;10.33;84.45
77727;SHT30;68312;53.502;10.030;2023-03-14T01:38:44;10.30;84.47
77727;SHT30;68312;53.502;10.030;2023-03-14T01:41:16;10.40;84.01
77727;SHT30;68312;53.502;10.030;2023-03-14T01:43:45;10.42;83.93
77727;SHT30;68312;53.502;10.030;2023-03-14T01:46:43;10.45;83.76
77727;SHT30;68312;53.502;10.030;2023-03-14T01:52:19;10.41;83.88
77727;SHT30;68312;53.502;10.030;2023-03-14T01:54:55;10.36;84.25
77727;SHT30;68312;53.502;10.030;2023-03-14T01:57:41;10.36;84.34
77727;SHT30;68312;53.502;10.030;2023-03-14T02:00:14;10.36;84.24
77727;SHT30;68312;53.502;10.030;2023-03-14T02:02:46;10.31;84.37
77727;SHT30;68312;53.502;10.030;2023-03-14T02:05:19;10.41;83.93
77727;SHT30;68312;53.502;10.030;2023-03-14T02:07:56;10.36;84.03
77727;SHT30;68312;53.502;10.030;2023-03-14T02:10:38;10.33;83.89
77727;SHT30;68312;53.502;10.030;2023-03-14T02:13:07;10.44;83.35
77727;SHT30;68312;53.502;10.030;2023-03-14T02:15:33;10.38;83.59
77727;SHT30;68312;53.502;10.030;2023-03-14T02:18:02;10.29;83.99
77727;SHT30;68312;53.502;10.030;2023-03-14T02:20:56;10.23;83.96
77727;SHT30;68312;53.502;10.030;2023-03-14T02:23:57;10.31;83.21
77727;SHT30;68312;53.502;10.030;2023-03-14T02:26:38;10.44;82.36
77727;SHT30;68312;53.502;10.030;2023-03-14T02:29:08;10.40;82.58
77727;SHT30;68312;53.502;10.030;2023-03-14T02:31:34;10.40;82.48
77727;SHT30;68312;53.502;10.030;2023-03-14T02:34:01;10.54;81.89
77727;SHT30;68312;53.502;10.030;2023-03-14T02:36:29;10.44;82.14
77727;SHT30;68312;53.502;10.030;2023-03-14T02:39:14;10.51;81.84
77727;SHT30;68312;53.502;10.030;2023-03-14T02:41:46;10.54;81.81
77727;SHT30;68312;53.502;10.030;2023-03-14T02:44:14;10.47;82.02
77727;SHT30;68312;53.502;10.030;2023-03-14T02:46:40;10.44;82.19
77727;SHT30;68312;53.502;10.030;2023-03-14T02:49:10;10.44;82.46
77727;SHT30;68312;53.502;10.030;2023-03-14T02:51:40;10.33;82.87
77727;SHT30;68312;53.502;10.030;2023-03-14T02:54:11;10.33;83.04
77727;SHT30;68312;53.502;10.030;2023-03-14T02:56:36;10.40;82.67
77727;SHT30;68312;53.502;10.030;2023-03-14T02:59:06;10.33;83.00
77727;SHT30;68312;53.502;10.030;2023-03-14T03:01:33;10.33;83.05
77727;SHT30;68312;53.502;10.030;2023-03-14T03:03:59;10.38;82.93
77727;SHT30;68312;53.502;10.030;2023-03-14T03:06:25;10.38;83.07
77727;SHT30;68312;53.502;10.030;2023-03-14T03:08:52;10.47;82.42
77727;SHT30;68312;53.502;10.030;2023-03-14T03:11:17;10.54;82.08
77727;SHT30;68312;53.502;10.030;2023-03-14T03:13:43;10.58;81.79
77727;SHT30;68312;53.502;10.030;2023-03-14T03:16:09;10.61;81.62
77727;SHT30;68312;53.502;10.030;2023-03-14T03:18:34;10.76;81.10
77727;SHT30;68312;53.502;10.030;2023-03-14T03:21:02;10.89;80.48
77727;SHT30;68312;53.502;10.030;2023-03-14T03:23:29;10.85;80.40
77727;SHT30;68312;53.502;10.030;2023-03-14T03:25:55;11.00;79.93
77727;SHT30;68312;53.502;10.030;2023-03-14T03:28:20;11.00;79.76
77727;SHT30;68312;53.502;10.030;2023-03-14T03:30:46;11.05;79.37
77727;SHT30;68312;53.502;10.030;2023-03-14T03:33:12;11.06;79.55
77727;SHT30;68312;53.502;10.030;2023-03-14T03:35:49;11.09;79.55
77727;SHT30;68312;53.502;10.030;2023-03-14T03:38:16;11.12;79.54
77727;SHT30;68312;53.502;10.030;2023-03-14T03:40:42;11.18;79.37
77727;SHT30;68312;53.502;10.030;2023-03-14T03:43:08;11.19;79.04
77727;SHT30;68312;53.502;10.030;2023-03-14T03:45:34;11.26;78.70
77727;SHT30;68312;53.502;10.030;2023-03-14T03:47:59;11.15;79.01
77727;SHT30;68312;53.502;10.030;2023-03-14T03:50:28;11.15;78.98
77727;SHT30;68312;53.502;10.030;2023-03-14T03:52:53;10.96;79.71
77727;SHT30;68312;53.502;10.030;2023-03-14T03:55:19;10.99;79.54
77727;SHT30;68312;53.502;10.030;2023-03-14T03:57:44;10.93;79.62
77727;SHT30;68312;53.502;10.030;2023-03-14T04:00:11;10.81;80.00
77727;SHT30;68312;53.502;10.030;2023-03-14T04:02:37;10.83;79.87
77727;SHT30;68312;53.502;10.030;2023-03-14T04:05:03;10.78;80.00
77727;SHT30;68312;53.502;10.030;2023-03-14T04:07:32;10.81;79.64
77727;SHT30;68312;53.502;10.030;2023-03-14T04:09:57;10.73;79.99
77727;SHT30;68312;53.502;10.030;2023-03-14T04:12:23;10.88;79.52
77727;SHT30;68312;53.502;10.030;2023-03-14T04:14:49;11.02;78.72
77727;SHT30;68312;53.502;10.030;2023-03-14T04:17:14;10.95;78.78
77727;SHT30;68312;53.502;10.030;2023-03-14T04:19:40;10.86;79.23
77727;SHT30;68312;53.502;10.030;2023-03-14T04:22:06;10.79;79.31
77727;SHT30;68312;53.502;10.030;2023-03-14T04:24:31;10.76;79.47
77727;SHT30;68312;53.502;10.030;2023-03-14T04:26:56;10.72;79.47
77727;SHT30;68312;53.502;10.030;2023-03-14T04:29:22;10.83;78.94
77727;SHT30;68312;53.502;10.030;2023-03-14T04:31:48;10.81;78.82
77727;SHT30;68312;53.502;10.030;2023-03-14T04:34:13;10.82;78.84
77727;SHT30;68312;53.502;10.030;2023-03-14T04:36:39;10.75;79.04
77727;SHT30;68312;53.502;10.030;2023-03-14T04:39:04;10.93;78.26
77727;SHT30;68312;53.502;10.030;2023-03-14T04:41:30;10.96;78.20
77727;SHT30;68312;53.502;10.030;2023-03-14T04:43:56;10.96;78.02
77727;SHT30;68312;53.502;10.030;2023-03-14T04:46:21;10.95;78.08
77727;SHT30;68312;53.502;10.030;2023-03-14T04:48:47;10.92;78.20
77727;SHT30;68312;53.502;10.030;2023-03-14T04:51:12;11.09;77.20
77727;SHT30;68312;53.502;10.030;2023-03-14T04:53:37;11.10;77.30
77727;SHT30;68312;53.502;10.030;2023-03-14T04:56:03;11.22;76.74
77727;SHT30;68312;53.502;10.030;2023-03-14T04:58:29;11.19;77.21
77727;SHT30;68312;53.502;10.030;2023-03-14T05:00:55;11.22;76.51
77727;SHT30;68312;53.502;10.030;2023-03-14T05:03:20;11.20;76.92
77727;SHT30;68312;53.502;10.030;2023-03-14T05:05:46;11.15;76.52
77727;SHT30;68312;53.502;10.030;2023-03-14T05:08:12;11.13;77.56
77727;SHT30;68312;53.502;10.030;2023-03-14T05:10:38;11.02;78.34
77727;SHT30;68312;53.502;10.030;2023-03-14T05:13:03;11.03;78.45
77727;SHT30;68312;53.502;10.030;2023-03-14T05:15:29;10.99;79.27
77727;SHT30;68312;53.502;10.030;2023-03-14T05:17:54;10.86;78.79
77727;SHT30;68312;53.502;10.030;2023-03-14T05:20:21;10.78;79.63
77727;SHT30;68312;53.502;10.030;2023-03-14T05:22:47;10.86;78.69
77727;SHT30;68312;53.502;10.030;2023-03-14T05:25:13;10.86;78.65
77727;SHT30;68312;53.502;10.030;2023-03-14T05:27:38;10.89;78.42
77727;SHT30;68312;53.502;10.030;2023-03-14T05:30:05;10.92;78.33
77727;SHT30;68312;53.502;10.030;2023-03-14T05:32:32;10.92;78.30
77727;SHT30;68312;53.502;10.030;2023-03-14T05:34:58;10.88;78.38
77727;SHT30;68312;53.502;10.030;2023-03-14T05:37:27;10.93;78.36
77727;SHT30;68312;53.502;10.030;2023-03-14T05:39:53;10.85;78.75
77727;SHT30;68312;53.502;10.030;2023-03-14T05:42:19;10.78;79.09
77727;SHT30;68312;53.502;10.030;2023-03-14T05:44:45;10.82;79.25
77727;SHT30;68312;53.502;10.030;2023-03-14T05:47:10;10.83;79.26
77727;SHT30;68312;53.502;10.030;2023-03-14T05:49:36;10.75;79.55
77727;SHT30;68312;53.502;10.030;2023-03-14T05:52:01;10.71;79.90
77727;SHT30;68312;53.502;10.030;2023-03-14T05:54:27;10.73;79.22
77727;SHT30;68312;53.502;10.030;2023-03-14T05:56:52;10.81;79.65
77727;SHT30;68312;53.502;10.030;2023-03-14T05:59:18;10.75;79.88
77727;SHT30;68312;53.502;10.030;2023-03-14T06:01:43;10.64;79.87
77727;SHT30;68312;53.502;10.030;2023-03-14T06:04:09;10.61;80.62
77727;SHT30;68312;53.502;10.030;2023-03-14T06:06:35;10.52;81.10
77727;SHT30;68312;53.502;10.030;2023-03-14T06:09:01;10.45;81.26
77727;SHT30;68312;53.502;10.030;2023-03-14T06:11:26;10.52;81.08
77727;SHT30;68312;53.502;10.030;2023-03-14T06:13:52;10.61;80.23
77727;SHT30;68312;53.502;10.030;2023-03-14T06:16:17;10.57;80.33
77727;SHT30;68312;53.502;10.030;2023-03-14T06:18:43;10.52;79.87
77727;SHT30;68312;53.502;10.030;2023-03-14T06:21:11;10.52;80.02
77727;SHT30;68312;53.502;10.030;2023-03-14T06:23:37;10.67;78.77
77727;SHT30;68312;53.502;10.030;2023-03-14T06:26:04;10.72;78.30
77727;SHT30;68312;53.502;10.030;2023-03-14T06:28:30;10.72;78.05
77727;SHT30;68312;53.502;10.030;2023-03-14T06:30:56;10.69;78.12
77727;SHT30;68312;53.502;10.030;2023-03-14T06:33:21;10.72;77.90
77727;SHT30;68312;53.502;10.030;2023-03-14T06:35:47;10.59;77.83
77727;SHT30;68312;53.502;10.030;2023-03-14T06:38:12;10.45;78.60
77727;SHT30;68312;53.502;10.030;2023-03-14T06:40:38;10.54;77.74
77727;SHT30;68312;53.502;10.030;2023-03-14T06:43:03;10.59;76.89
77727;SHT30;68312;53.502;10.030;2023-03-14T06:45:29;10.71;76.62
77727;SHT30;68312;53.502;10.030;2023-03-14T06:47:54;10.78;76.94
77727;SHT30;68312;53.502;10.030;2023-03-14T06:50:19;10.79;76.11
77727;SHT30;68312;53.502;10.030;2023-03-14T06:52:47;10.96;75.78
77727;SHT30;68312;53.502;10.030;2023-03-14T06:55:15;11.27;75.08
77727;SHT30;68312;53.502;10.030;2023-03-14T06:57:40;11.24;74.93
77727;SHT30;68312;53.502;10.030;2023-03-14T07:00:07;11.16;74.84
77727;SHT30;68312;53.502;10.030;2023-03-14T07:02:33;11.00;75.06
77727;SHT30;68312;53.502;10.030;2023-03-14T07:04:59;10.91;75.78
77727;SHT30;68312;53.502;10.030;2023-03-14T07:07:26;10.91;75.43
77727;SHT30;68312;53.502;10.030;2023-03-14T07:09:52;10.83;76.31
77727;SHT30;68312;53.502;10.030;2023-03-14T07:12:18;10.79;76.45
77727;SHT30;68312;53.502;10.030;2023-03-14T07:14:44;10.65;77.38
77727;SHT30;68312;53.502;10.030;2023-03-14T07:17:10;10.68;77.30
77727;SHT30;68312;53.502;10.030;2023-03-14T07:19:35;10.67;77.25
77727;SHT30;68312;53.502;10.030;2023-03-14T07:22:01;10.65;77.74
77727;SHT30;68312;53.502;10.030;2023-03-14T07:24:26;10.67;77.69
77727;SHT30;68312;53.502;10.030;2023-03-14T07:26:52;10.76;77.23
77727;SHT30;68312;53.502;10.030;2023-03-14T07:29:18;10.86;77.27
77727;SHT30;68312;53.502;10.030;2023-03-14T07:31:43;10.96;76.79
77727;SHT30;68312;53.502;10.030;2023-03-14T07:34:09;11.06;75.41
77727;SHT30;68312;53.502;10.030;2023-03-14T07:36:34;11.13;74.94
77727;SHT30;68312;53.502;10.030;2023-03-14T07:39:00;11.30;74.76
77727;SHT30;68312;53.502;10.030;2023-03-14T07:41:26;11.51;74.00
77727;SHT30;68312;53.502;10.030;2023-03-14T07:43:51;11.81;72.78
77727;SHT30;68312;53.502;10.030;2023-03-14T07:46:17;11.98;72.73
77727;SHT30;68312;53.502;10.030;2023-03-14T07:48:45;11.95;71.71
77727;SHT30;68312;53.502;10.030;2023-03-14T07:51:10;11.85;72.47
77727;SHT30;68312;53.502;10.030;2023-03-14T07:53:36;11.89;73.50
77727;SHT30;68312;53.502;10.030;2023-03-14T07:56:02;11.77;72.79
77727;SHT30;68312;53.502;10.030;2023-03-14T07:58:27;11.58;73.51
77727;SHT30;68312;53.502;10.030;2023-03-14T08:00:53;11.48;73.54
77727;SHT30;68312;53.502;10.030;2023-03-14T08:03:18;11.33;74.07
77727;SHT30;68312;53.502;10.030;2023-03-14T08:05:48;11.19;75.04
77727;SHT30;68312;53.502;10.030;2023-03-14T08:08:15;11.13;75.02
77727;SHT30;68312;53.502;10.030;2023-03-14T08:10:41;11.15;75.38
77727;SHT30;68312;53.502;10.030;2023-03-14T08:13:06;11.26;74.26
77727;SHT30;68312;53.502;10.030;2023-03-14T08:15:32;11.57;72.86
77727;SHT30;68312;53.502;10.030;2023-03-14T08:17:57;11.94;72.00
77727;SHT30;68312;53.502;10.030;2023-03-14T08:20:27;12.08;71.90
77727;SHT30;68312;53.502;10.030;2023-03-14T08:23:02;12.01;71.45
77727;SHT30;68312;53.502;10.030;2023-03-14T08:25:34;12.33;71.38
77727;SHT30;68312;53.502;10.030;2023-03-14T08:28:00;12.19;71.07
77727;SHT30;68312;53.502;10.030;2023-03-14T08:30:25;11.94;71.80
77727;SHT30;68312;53.502;10.030;2023-03-14T08:32:51;11.84;73.00
77727;SHT30;68312;53.502;10.030;2023-03-14T08:35:16;11.82;73.01
77727;SHT30;68312;53.502;10.030;2023-03-14T08:37:42;12.02;72.37
77727;SHT30;68312;53.502;10.030;2023-03-14T08:40:08;12.01;72.31
77727;SHT30;68312;53.502;10.030;2023-03-14T08:42:40;12.11;72.59
77727;SHT30;68312;53.502;10.030;2023-03-14T08:45:07;12.18;72.16
77727;SHT30;68312;53.502;10.030;2023-03-14T08:47:33;12.01;72.25
77727;SHT30;68312;53.502;10.030;2023-03-14T08:49:59;12.02;73.33
77727;SHT30;68312;53.502;10.030;2023-03-14T08:52:25;12.14;72.25
77727;SHT30;68312;53.502;10.030;2023-03-14T08:54:50;12.22;71.62
77727;SHT30;68312;53.502;10.030;2023-03-14T08:57:16;11.95;72.37
77727;SHT30;68312;53.502;10.030;2023-03-14T08:59:41;12.01;73.26
77727;SHT30;68312;53.502;10.030;2023-03-14T09:02:11;11.77;72.83
77727;SHT30;68312;53.502;10.030;2023-03-14T09:04:36;11.75;72.97
77727;SHT30;68312;53.502;10.030;2023-03-14T09:07:02;11.68;73.57
77727;SHT30;68312;53.502;10.030;2023-03-14T09:09:28;11.85;73.71
77727;SHT30;68312;53.502;10.030;2023-03-14T09:11:55;11.98;72.20
77727;SHT30;68312;53.502;10.030;2023-03-14T09:14:22;12.36;71.95
77727;SHT30;68312;53.502;10.030;2023-03-14T09:16:48;12.74;71.16
77727;SHT30;68312;53.502;10.030;2023-03-14T09:19:14;12.83;71.95
77727;SHT30;68312;53.502;10.030;2023-03-14T09:21:40;12.35;72.52
77727;SHT30;68312;53.502;10.030;2023-03-14T09:24:11;11.94;73.61
77727;SHT30;68312;53.502;10.030;2023-03-14T09:26:37;11.77;74.58
77727;SHT30;68312;53.502;10.030;2023-03-14T09:29:03;11.51;76.59
77727;SHT30;68312;53.502;10.030;2023-03-14T09:31:28;11.47;76.81
77727;SHT30;68312;53.502;10.030;2023-03-14T09:33:55;11.43;77.27
77727;SHT30;68312;53.502;10.030;2023-03-14T09:36:20;11.43;76.70
77727;SHT30;68312;53.502;10.030;2023-03-14T09:38:46;11.66;77.27
77727;SHT30;68312;53.502;10.030;2023-03-14T09:41:46;11.71;75.58
77727;SHT30;68312;53.502;10.030;2023-03-14T09:44:34;11.41;77.48
77727;SHT30;68312;53.502;10.030;2023-03-14T09:47:12;10.96;81.17
77727;SHT30;68312;53.502;10.030;2023-03-14T09:49:41;10.69;83.58
77727;SHT30;68312;53.502;10.030;2023-03-14T09:52:36;10.34;86.12
77727;SHT30;68312;53.502;10.030;2023-03-14T09:55:13;10.14;86.39
77727;SHT30;68312;53.502;10.030;2023-03-14T09:57:43;9.83;87.90
77727;SHT30;68312;53.502;10.030;2023-03-14T10:00:27;9.72;88.50
77727;SHT30;68312;53.502;10.030;2023-03-14T10:03:14;9.69;89.27
77727;SHT30;68312;53.502;10.030;2023-03-14T10:05:55;9.08;82.63
77727;SHT30;68312;53.502;10.030;2023-03-14T10:08:21;8.29;84.69
77727;SHT30;68312;53.502;10.030;2023-03-14T10:10:46;8.05;86.50
77727;SHT30;68312;53.502;10.030;2023-03-14T10:13:23;7.87;87.54
77727;SHT30;68312;53.502;10.030;2023-03-14T10:16:02;7.80;86.74
77727;SHT30;68312;53.502;10.030;2023-03-14T10:18:32;7.60;87.50
77727;SHT30;68312;53.502;10.030;2023-03-14T10:21:17;7.52;89.10
77727;SHT30;68312;53.502;10.030;2023-03-14T10:23:47;7.45;89.01
77727;SHT30;68312;53.502;10.030;2023-03-14T10:26:16;7.45;88.62
77727;SHT30;68312;53.502;10.030;2023-03-14T10:28:49;7.49;88.35
77727;SHT30;68312;53.502;10.030;2023-03-14T10:31:17;7.40;87.50
77727;SHT30;68312;53.502;10.030;2023-03-14T10:34:04;7.30;87.06
77727;SHT30;68312;53.502;10.030;2023-03-14T10:36:33;7.14;87.68
77727;SHT30;68312;53.502;10.030;2023-03-14T10:39:42;7.01;88.27
77727;SHT30;68312;53.502;10.030;2023-03-14T10:42:26;6.80;88.46
77727;SHT30;68312;53.502;10.030;2023-03-14T10:45:03;6.54;86.62
77727;SHT30;68312;53.502;10.030;2023-03-14T10:47:33;6.32;86.33
77727;SHT30;68312;53.502;10.030;2023-03-14T10:50:29;6.13;86.39
77727;SHT30;68312;53.502;10.030;2023-03-14T10:53:01;5.92;86.03
77727;SHT30;68312;53.502;10.030;2023-03-14T10:55:43;5.68;87.61
77727;SHT30;68312;53.502;10.030;2023-03-14T10:58:23;5.65;87.28
77727;SHT30;68312;53.502;10.030;2023-03-14T11:01:21;5.72;86.52
77727;SHT30;68312;53.502;10.030;2023-03-14T11:07:37;5.41;83.89
77727;SHT30;68312;53.502;10.030;2023-03-14T11:10:28;5.20;85.82
77727;SHT30;68312;53.502;10.030;2023-03-14T11:13:39;5.12;85.56
77727;SHT30;68312;53.502;10.030;2023-03-14T11:19:19;4.92;85.06
77727;SHT30;68312;53.502;10.030;2023-03-14T11:22:39;4.85;82.75
77727;SHT30;68312;53.502;10.030;2023-03-14T11:25:40;4.88;83.37
77727;SHT30;68312;53.502;10.030;2023-03-14T11:28:36;4.95;83.08
77727;SHT30;68312;53.502;10.030;2023-03-14T11:31:28;4.90;83.42
77727;SHT30;68312;53.502;10.030;2023-03-14T11:36:59;4.69;85.39
77727;SHT30;68312;53.502;10.030;2023-03-14T11:39:40;4.68;84.02
77727;SHT30;68312;53.502;10.030;2023-03-14T11:42:17;4.68;83.45
77727;SHT30;68312;53.502;10.030;2023-03-14T11:44:48;4.71;83.14
77727;SHT30;68312;53.502;10.030;2023-03-14T11:47:24;4.68;82.20
77727;SHT30;68312;53.502;10.030;2023-03-14T11:50:24;4.71;81.97
77727;SHT30;68312;53.502;10.030;2023-03-14T11:53:13;4.85;80.20
77727;SHT30;68312;53.502;10.030;2023-03-14T11:55:45;4.86;80.53
77727;SHT30;68312;53.502;10.030;2023-03-14T11:58:17;5.03;79.32
77727;SHT30;68312;53.502;10.030;2023-03-14T12:00:50;5.12;78.97
77727;SHT30;68312;53.502;10.030;2023-03-14T12:03:33;5.30;77.16
77727;SHT30;68312;53.502;10.030;2023-03-14T12:06:32;5.36;75.97
77727;SHT30;68312;53.502;10.030;2023-03-14T12:09:06;5.20;73.29
77727;SHT30;68312;53.502;10.030;2023-03-14T12:11:40;5.13;74.38
77727;SHT30;68312;53.502;10.030;2023-03-14T12:14:27;5.03;74.90
77727;SHT30;68312;53.502;10.030;2023-03-14T12:16:59;4.97;74.49
77727;SHT30;68312;53.502;10.030;2023-03-14T12:19:43;5.07;74.12
77727;SHT30;68312;53.502;10.030;2023-03-14T12:22:28;5.12;74.98
77727;SHT30;68312;53.502;10.030;2023-03-14T12:25:06;5.16;75.17
77727;SHT30;68312;53.502;10.030;2023-03-14T12:30:30;5.22;75.68
77727;SHT30;68312;53.502;10.030;2023-03-14T12:36:04;5.33;74.04
77727;SHT30;68312;53.502;10.030;2023-03-14T12:47:40;5.72;75.34
77727;SHT30;68312;53.502;10.030;2023-03-14T12:50:14;5.71;73.04
77727;SHT30;68312;53.502;10.030;2023-03-14T12:56:14;5.67;73.61
77727;SHT30;68312;53.502;10.030;2023-03-14T12:59:13;5.67;73.15
77727;SHT30;68312;53.502;10.030;2023-03-14T13:02:13;5.62;74.30
77727;SHT30;68312;53.502;10.030;2023-03-14T13:04:50;5.68;75.20
77727;SHT30;68312;53.502;10.030;2023-03-14T13:07:34;5.43;77.87
77727;SHT30;68312;53.502;10.030;2023-03-14T13:10:23;5.07;81.50
77727;SHT30;68312;53.502;10.030;2023-03-14T13:13:15;5.00;83.18
77727;SHT30;68312;53.502;10.030;2023-03-14T13:15:47;4.99;82.32
77727;SHT30;68312;53.502;10.030;2023-03-14T13:18:27;5.06;83.15
77727;SHT30;68312;53.502;10.030;2023-03-14T13:21:12;5.36;82.63
77727;SHT30;68312;53.502;10.030;2023-03-14T13:24:04;5.88;80.75
77727;SHT30;68312;53.502;10.030;2023-03-14T13:26:43;6.20;76.64
77727;SHT30;68312;53.502;10.030;2023-03-14T13:29:22;6.38;75.97
77727;SHT30;68312;53.502;10.030;2023-03-14T13:31:56;6.84;72.81
77727;SHT30;68312;53.502;10.030;2023-03-14T13:34:33;7.15;68.86
77727;SHT30;68312;53.502;10.030;2023-03-14T13:37:00;7.22;64.96
77727;SHT30;68312;53.502;10.030;2023-03-14T13:39:27;6.95;61.71
77727;SHT30;68312;53.502;10.030;2023-03-14T13:41:59;6.75;55.23
77727;SHT30;68312;53.502;10.030;2023-03-14T13:44:36;6.53;52.87
77727;SHT30;68312;53.502;10.030;2023-03-14T13:47:10;6.43;51.89
77727;SHT30;68312;53.502;10.030;2023-03-14T13:49:39;6.47;52.41
77727;SHT30;68312;53.502;10.030;2023-03-14T13:52:32;6.60;55.79
77727;SHT30;68312;53.502;10.030;2023-03-14T13:55:04;6.81;53.41
77727;SHT30;68312;53.502;10.030;2023-03-14T13:57:49;7.09;53.23
77727;SHT30;68312;53.502;10.030;2023-03-14T14:00:26;7.40;53.19
77727;SHT30;68312;53.502;10.030;2023-03-14T14:02:58;7.62;53.08
77727;SHT30;68312;53.502;10.030;2023-03-14T14:05:29;7.42;52.58
77727;SHT30;68312;53.502;10.030;2023-03-14T14:07:56;7.30;52.69
77727;SHT30;68312;53.502;10.030;2023-03-14T14:10:22;6.99;56.23
77727;SHT30;68312;53.502;10.030;2023-03-14T14:13:14;6.60;56.54
77727;SHT30;68312;53.502;10.030;2023-03-14T14:15:49;6.29;58.32
77727;SHT30;68312;53.502;10.030;2023-03-14T14:18:22;6.05;59.31
77727;SHT30;68312;53.502;10.030;2023-03-14T14:20:52;5.98;59.59
77727;SHT30;68312;53.502;10.030;2023-03-14T14:23:22;6.54;57.62
77727;SHT30;68312;53.502;10.030;2023-03-14T14:25:56;7.43;58.02
77727;SHT30;68312;53.502;10.030;2023-03-14T14:28:30;7.87;53.68
77727;SHT30;68312;53.502;10.030;2023-03-14T14:33:52;7.80;51.48
77727;SHT30;68312;53.502;10.030;2023-03-14T14:36:43;7.46;51.05
77727;SHT30;68312;53.502;10.030;2023-03-14T14:39:21;7.14;50.93
77727;SHT30;68312;53.502;10.030;2023-03-14T14:41:51;7.05;51.73
77727;SHT30;68312;53.502;10.030;2023-03-14T14:44:28;6.87;53.78
77727;SHT30;68312;53.502;10.030;2023-03-14T14:46:57;6.92;54.15
77727;SHT30;68312;53.502;10.030;2023-03-14T14:49:30;6.96;50.43
77727;SHT30;68312;53.502;10.030;2023-03-14T14:52:08;6.91;50.85
77727;SHT30;68312;53.502;10.030;2023-03-14T14:54:52;6.74;51.06
77727;SHT30;68312;53.502;10.030;2023-03-14T14:57:26;6.83;50.46
77727;SHT30;68312;53.502;10.030;2023-03-14T15:00:20;6.65;48.96
77727;SHT30;68312;53.502;10.030;2023-03-14T15:02:53;6.65;49.72
77727;SHT30;68312;53.502;10.030;2023-03-14T15:05:27;6.50;49.84
77727;SHT30;68312;53.502;10.030;2023-03-14T15:07:56;6.38;51.75
77727;SHT30;68312;53.502;10.030;2023-03-14T15:10:25;6.40;52.01
77727;SHT30;68312;53.502;10.030;2023-03-14T15:12:51;6.56;52.30
77727;SHT30;68312;53.502;10.030;2023-03-14T15:15:17;6.57;53.65
77727;SHT30;68312;53.502;10.030;2023-03-14T15:17:44;6.51;53.92
77727;SHT30;68312;53.502;10.030;2023-03-14T15:20:14;6.36;54.50
77727;SHT30;68312;53.502;10.030;2023-03-14T15:22:46;6.26;55.75
77727;SHT30;68312;53.502;10.030;2023-03-14T15:25:21;6.17;55.81
77727;SHT30;68312;53.502;10.030;2023-03-14T15:27:46;6.19;57.09
77727;SHT30;68312;53.502;10.030;2023-03-14T15:30:13;6.36;56.86
77727;SHT30;68312;53.502;10.030;2023-03-14T15:32:43;6.48;57.43
77727;SHT30;68312;53.502;10.030;2023-03-14T15:35:09;6.57;57.80
77727;SHT30;68312;53.502;10.030;2023-03-14T15:37:35;6.87;56.22
77727;SHT30;68312;53.502;10.030;2023-03-14T15:40:01;6.99;56.15
77727;SHT30;68312;53.502;10.030;2023-03-14T15:42:32;7.14;54.66
77727;SHT30;68312;53.502;10.030;2023-03-14T15:44:58;6.96;55.05
77727;SHT30;68312;53.502;10.030;2023-03-14T15:47:23;6.70;55.10
77727;SHT30;68312;53.502;10.030;2023-03-14T15:49:49;6.56;54.28
77727;SHT30;68312;53.502;10.030;2023-03-14T15:52:14;6.48;54.76
77727;SHT30;68312;53.502;10.030;2023-03-14T15:54:40;6.43;55.20
77727;SHT30;68312;53.502;10.030;2023-03-14T15:57:05;6.32;54.92
77727;SHT30;68312;53.502;10.030;2023-03-14T15:59:31;6.32;54.94
77727;SHT30;68312;53.502;10.030;2023-03-14T16:01:57;6.20;54.16
77727;SHT30;68312;53.502;10.030;2023-03-14T16:04:22;6.07;55.45
77727;SHT30;68312;53.502;10.030;2023-03-14T16:06:48;6.09;53.90
77727;SHT30;68312;53.502;10.030;2023-03-14T16:09:13;6.01;55.52
77727;SHT30;68312;53.502;10.030;2023-03-14T16:11:39;6.07;55.10
77727;SHT30;68312;53.502;10.030;2023-03-14T16:14:05;6.02;55.48
77727;SHT30;68312;53.502;10.030;2023-03-14T16:16:31;6.02;56.00
77727;SHT30;68312;53.502;10.030;2023-03-14T16:18:57;6.06;53.79